Avalon Express — WDD7919 — position and weather

sailwx.info

Track history (hours):
 
Tides and Currents Weather Stations Pressure Air Temp Water Temp Dewpoint Dewpoint Depression Visibility Wind Speed Wind Dir Waves Ship Positions

Avalon Express

Owner: RGWT INC, San Pedro, CA. More information available from US FCC via Universal Licensing System and Coast Guard Vessel Documentation Center.

Last reported at 2015-May-03 19:31 UTC. Time now 2015-May-03 21:57 UTC.
Position N 33°22' W 118°20'.

Type: High speed craft. MMSI: 367192940.

Date/timePositionNaut miles runAvg speedWind from/ knotsBaromVisibWave heightAir tempDewpointWater temp
2015-May-03 19:31N 33°22' W 118°20'2311.9
2015-May-03 17:33N 33°45' W 118°16'0 0.0
2015-May-03 16:34N 33°45' W 118°16'0 0.0
2015-May-03 15:15N 33°45' W 118°16'0 0.0
2015-May-03 14:25N 33°45' W 118°16'0 0.0
2015-May-03 12:16N 33°45' W 118°16'0 0.0
2015-May-03 05:18N 33°45' W 118°16'2413.1
2015-May-03 03:26N 33°21' W 118°19'2223.9
2015-May-03 02:31N 33°42' W 118°15'2 2.5
2015-May-03 01:33N 33°44' W 118°17'1919.3
2015-May-03 00:33N 33°25' W 118°20'2 2.2
2015-May-02 23:34N 33°24' W 118°18'2020.2
2015-May-02 22:33N 33°45' W 118°16'0 0.1
2015-May-02 21:33N 33°45' W 118°16'2 1.9
2015-May-02 20:34N 33°43' W 118°16'2322.6
2015-May-02 19:33N 33°21' W 118°19'10 9.8
2015-May-02 18:34N 33°30' W 118°17'1514.7
2015-May-02 17:33N 33°45' W 118°16'6 5.9
2015-May-02 16:34N 33°39' W 118°14'1919.1
2015-May-02 15:33N 33°21' W 118°19'2222.5
2015-May-02 14:34N 33°43' W 118°15'2 2.2
2015-May-02 13:34N 33°45' W 118°16'0 0.0
2015-May-02 05:33N 33°45' W 118°16'1 0.9
2015-May-02 04:33N 33°44' W 118°17'2020.2
2015-May-02 03:33N 33°28' W 118°31'9 8.6
2015-May-02 02:33N 33°34' W 118°24'1212.2
2015-May-02 01:33N 33°45' W 118°16'1413.9
2015-May-02 00:33N 33°31' W 118°17'5 5.2
2015-May-01 23:34N 33°26' W 118°18'1918.8
2015-May-01 22:33N 33°45' W 118°16'0 0.0
2015-May-01 21:33N 33°45' W 118°16'0 0.0
2015-May-01 20:30N 33°45' W 118°16'1516.2
2015-May-01 19:34N 33°32' W 118°26'6 5.8
2015-May-01 18:33N 33°27' W 118°30'1312.7
2015-May-01 17:33N 33°37' W 118°21'8 8.5
2015-May-01 16:34N 33°45' W 118°16'0 0.0
2015-May-01 15:33N 33°45' W 118°16'0 0.0
2015-May-01 14:34N 33°45' W 118°16'0 0.0
2015-May-01 13:33N 33°45' W 118°16'0 0.0
2015-Apr-30 18:33N 33°45' W 118°16'0 0.0
2015-Apr-30 17:33N 33°45' W 118°16'0 0.0
2015-Apr-30 16:33N 33°45' W 118°16'0 0.0
2015-Apr-30 15:33N 33°45' W 118°16'0 0.0
2015-Apr-30 14:33N 33°45' W 118°16'0 0.0
2015-Apr-30 13:33N 33°45' W 118°16'0 0.0
2015-Apr-30 12:33N 33°45' W 118°16'0 0.0
2015-Apr-30 02:33N 33°45' W 118°16'0 0.0
2015-Apr-30 01:33N 33°45' W 118°16'1818.2
2015-Apr-30 00:33N 33°27' W 118°18'8 7.9
2015-Apr-29 23:33N 33°27' W 118°27'1111.5
2015-Apr-29 22:33N 33°36' W 118°20'9 9.0
2015-Apr-29 21:33N 33°45' W 118°16'0 0.0
2015-Apr-29 20:33N 33°45' W 118°16'1110.9
2015-Apr-29 19:33N 33°35' W 118°21'1110.8
2015-Apr-29 18:33N 33°28' W 118°32'1010.0
2015-Apr-29 17:33N 33°35' W 118°23'1110.8
2015-Apr-29 16:32N 33°45' W 118°16'0 0.0
2015-Apr-29 15:32N 33°45' W 118°16'0 0.0
2015-Apr-29 14:28N 33°45' W 118°16'0 0.0
2015-Apr-29 13:33N 33°45' W 118°16'1 0.1
2015-Apr-29 01:18N 33°44' W 118°16'1621.4
2015-Apr-29 00:33N 33°28' W 118°18'7 6.6
2015-Apr-28 23:33N 33°26' W 118°26'1110.6
2015-Apr-28 22:33N 33°36' W 118°20'10 9.6
2015-Apr-28 21:33N 33°45' W 118°16'0 0.0
2015-Apr-28 20:33N 33°45' W 118°16'1 1.0
2015-Apr-28 19:33N 33°44' W 118°16'2311.4
2015-Apr-28 17:34N 33°21' W 118°19'1414.5
2015-Apr-28 16:34N 33°36' W 118°16'9 9.3
2015-Apr-28 15:33N 33°45' W 118°16'0 0.0
2015-Apr-28 14:33N 33°45' W 118°16'0 0.0
2015-Apr-28 13:16N 33°45' W 118°16'0 0.0
2015-Apr-28 02:33N 33°45' W 118°16'0 0.3
2015-Apr-28 01:33N 33°45' W 118°17'1919.1
2015-Apr-28 00:33N 33°26' W 118°20'8 7.1
2015-Apr-27 23:29N 33°27' W 118°28'1212.6
2015-Apr-27 22:33N 33°36' W 118°20'9 8.6
2015-Apr-27 21:30N 33°45' W 118°16'0 0.0
2015-Apr-27 20:31N 33°45' W 118°16'1110.5
2015-Apr-27 19:31N 33°35' W 118°22'6 3.0
2015-Apr-27 17:34N 33°40' W 118°17'5 5.1
2015-Apr-27 16:33N 33°45' W 118°16'0 0.0
2015-Apr-27 00:24N 33°45' W 118°16'0 0.1
2015-Apr-26 23:33N 33°45' W 118°16'1814.4
2015-Apr-26 22:17N 33°27' W 118°19'6 6.2
2015-Apr-26 21:18N 33°21' W 118°19'1723.4
2015-Apr-26 20:33N 33°38' W 118°17'7 7.1
2015-Apr-26 19:33N 33°45' W 118°16'2411.4
2015-Apr-26 17:25N 33°21' W 118°19'2221.6
2015-Apr-26 16:23N 33°43' W 118°16'2 2.4
2015-Apr-26 15:33N 33°45' W 118°16'0 0.0
2015-Apr-26 02:14N 33°45' W 118°16'0 0.0
2015-Apr-26 01:33N 33°45' W 118°16'0 0.0
2015-Apr-25 22:33N 33°45' W 118°16'0 0.0
2015-Apr-25 17:33N 33°45' W 118°16'2411.5
2015-Apr-25 15:27N 33°21' W 118°19'2420.5
2015-Apr-25 14:16N 33°45' W 118°16'23 2.3
2015-Apr-25 04:19N 33°22' W 118°19'20 6.2
2015-Apr-25 01:09N 33°41' W 118°15'2024.4
2015-Apr-25 00:20N 33°22' W 118°19'22 3.0
2015-Apr-24 17:16N 33°43' W 118°16'2 2.8
2015-Apr-24 16:33N 33°45' W 118°16'0 0.0
2015-Apr-23 21:32N 33°45' W 118°16'0 0.0
2015-Apr-23 20:33N 33°45' W 118°16'  
Track history (hours):
 
Tides and Currents Weather Stations Pressure Air Temp Water Temp Dewpoint Dewpoint Depression Visibility Wind Speed Wind Dir Waves Ship Positions

Avalon Express

Owner: RGWT INC, San Pedro, CA. More information available from US FCC via Universal Licensing System and Coast Guard Vessel Documentation Center.

Last reported at 2015-May-03 19:31 UTC. Time now 2015-May-03 21:57 UTC.
Position N 33°22' W 118°20'.

Type: High speed craft. MMSI: 367192940.

Date/timePositionNaut miles runAvg speedWind from/ knotsBaromVisibWave heightAir tempDewpointWater temp
2015-May-03 19:31N 33°22' W 118°20'2311.9
2015-May-03 17:33N 33°45' W 118°16'0 0.0
2015-May-03 16:34N 33°45' W 118°16'0 0.0
2015-May-03 15:15N 33°45' W 118°16'0 0.0
2015-May-03 14:25N 33°45' W 118°16'0 0.0
2015-May-03 12:16N 33°45' W 118°16'0 0.0
2015-May-03 05:18N 33°45' W 118°16'2413.1
2015-May-03 03:26N 33°21' W 118°19'2223.9
2015-May-03 02:31N 33°42' W 118°15'2 2.5
2015-May-03 01:33N 33°44' W 118°17'1919.3
2015-May-03 00:33N 33°25' W 118°20'2 2.2
2015-May-02 23:34N 33°24' W 118°18'2020.2
2015-May-02 22:33N 33°45' W 118°16'0 0.1
2015-May-02 21:33N 33°45' W 118°16'2 1.9
2015-May-02 20:34N 33°43' W 118°16'2322.6
2015-May-02 19:33N 33°21' W 118°19'10 9.8
2015-May-02 18:34N 33°30' W 118°17'1514.7
2015-May-02 17:33N 33°45' W 118°16'6 5.9
2015-May-02 16:34N 33°39' W 118°14'1919.1
2015-May-02 15:33N 33°21' W 118°19'2222.5
2015-May-02 14:34N 33°43' W 118°15'2 2.2
2015-May-02 13:34N 33°45' W 118°16'0 0.0
2015-May-02 05:33N 33°45' W 118°16'1 0.9
2015-May-02 04:33N 33°44' W 118°17'2020.2
2015-May-02 03:33N 33°28' W 118°31'9 8.6
2015-May-02 02:33N 33°34' W 118°24'1212.2
2015-May-02 01:33N 33°45' W 118°16'1413.9
2015-May-02 00:33N 33°31' W 118°17'5 5.2
2015-May-01 23:34N 33°26' W 118°18'1918.8
2015-May-01 22:33N 33°45' W 118°16'0 0.0
2015-May-01 21:33N 33°45' W 118°16'0 0.0
2015-May-01 20:30N 33°45' W 118°16'1516.2
2015-May-01 19:34N 33°32' W 118°26'6 5.8
2015-May-01 18:33N 33°27' W 118°30'1312.7
2015-May-01 17:33N 33°37' W 118°21'8 8.5
2015-May-01 16:34N 33°45' W 118°16'0 0.0
2015-May-01 15:33N 33°45' W 118°16'0 0.0
2015-May-01 14:34N 33°45' W 118°16'0 0.0
2015-May-01 13:33N 33°45' W 118°16'0 0.0
2015-Apr-30 18:33N 33°45' W 118°16'0 0.0
2015-Apr-30 17:33N 33°45' W 118°16'0 0.0
2015-Apr-30 16:33N 33°45' W 118°16'0 0.0
2015-Apr-30 15:33N 33°45' W 118°16'0 0.0
2015-Apr-30 14:33N 33°45' W 118°16'0 0.0
2015-Apr-30 13:33N 33°45' W 118°16'0 0.0
2015-Apr-30 12:33N 33°45' W 118°16'0 0.0
2015-Apr-30 02:33N 33°45' W 118°16'0 0.0
2015-Apr-30 01:33N 33°45' W 118°16'1818.2
2015-Apr-30 00:33N 33°27' W 118°18'8 7.9
2015-Apr-29 23:33N 33°27' W 118°27'1111.5
2015-Apr-29 22:33N 33°36' W 118°20'9 9.0
2015-Apr-29 21:33N 33°45' W 118°16'0 0.0
2015-Apr-29 20:33N 33°45' W 118°16'1110.9
2015-Apr-29 19:33N 33°35' W 118°21'1110.8
2015-Apr-29 18:33N 33°28' W 118°32'1010.0
2015-Apr-29 17:33N 33°35' W 118°23'1110.8
2015-Apr-29 16:32N 33°45' W 118°16'0 0.0
2015-Apr-29 15:32N 33°45' W 118°16'0 0.0
2015-Apr-29 14:28N 33°45' W 118°16'0 0.0
2015-Apr-29 13:33N 33°45' W 118°16'1 0.1
2015-Apr-29 01:18N 33°44' W 118°16'1621.4
2015-Apr-29 00:33N 33°28' W 118°18'7 6.6
2015-Apr-28 23:33N 33°26' W 118°26'1110.6
2015-Apr-28 22:33N 33°36' W 118°20'10 9.6
2015-Apr-28 21:33N 33°45' W 118°16'0 0.0
2015-Apr-28 20:33N 33°45' W 118°16'1 1.0
2015-Apr-28 19:33N 33°44' W 118°16'2311.4
2015-Apr-28 17:34N 33°21' W 118°19'1414.5
2015-Apr-28 16:34N 33°36' W 118°16'9 9.3
2015-Apr-28 15:33N 33°45' W 118°16'0 0.0
2015-Apr-28 14:33N 33°45' W 118°16'0 0.0
2015-Apr-28 13:16N 33°45' W 118°16'0 0.0
2015-Apr-28 02:33N 33°45' W 118°16'0 0.3
2015-Apr-28 01:33N 33°45' W 118°17'1919.1
2015-Apr-28 00:33N 33°26' W 118°20'8 7.1
2015-Apr-27 23:29N 33°27' W 118°28'1212.6
2015-Apr-27 22:33N 33°36' W 118°20'9 8.6
2015-Apr-27 21:30N 33°45' W 118°16'0 0.0
2015-Apr-27 20:31N 33°45' W 118°16'1110.5
2015-Apr-27 19:31N 33°35' W 118°22'6 3.0
2015-Apr-27 17:34N 33°40' W 118°17'5 5.1
2015-Apr-27 16:33N 33°45' W 118°16'0 0.0
2015-Apr-27 00:24N 33°45' W 118°16'0 0.1
2015-Apr-26 23:33N 33°45' W 118°16'1814.4
2015-Apr-26 22:17N 33°27' W 118°19'6 6.2
2015-Apr-26 21:18N 33°21' W 118°19'1723.4
2015-Apr-26 20:33N 33°38' W 118°17'7 7.1
2015-Apr-26 19:33N 33°45' W 118°16'2411.4
2015-Apr-26 17:25N 33°21' W 118°19'2221.6
2015-Apr-26 16:23N 33°43' W 118°16'2 2.4
2015-Apr-26 15:33N 33°45' W 118°16'0 0.0
2015-Apr-26 02:14N 33°45' W 118°16'0 0.0
2015-Apr-26 01:33N 33°45' W 118°16'0 0.0
2015-Apr-25 22:33N 33°45' W 118°16'0 0.0
2015-Apr-25 17:33N 33°45' W 118°16'2411.5
2015-Apr-25 15:27N 33°21' W 118°19'2420.5
2015-Apr-25 14:16N 33°45' W 118°16'23 2.3
2015-Apr-25 04:19N 33°22' W 118°19'20 6.2
2015-Apr-25 01:09N 33°41' W 118°15'2024.4
2015-Apr-25 00:20N 33°22' W 118°19'22 3.0
2015-Apr-24 17:16N 33°43' W 118°16'2 2.8
2015-Apr-24 16:33N 33°45' W 118°16'0 0.0
2015-Apr-23 21:32N 33°45' W 118°16'0 0.0
2015-Apr-23 20:33N 33°45' W 118°16'  

Dump ship's entire track history